sensor_id;sensor_type;location;lat;lon;timestamp;P1;durP1;ratioP1;P2;durP2;ratioP2
3757;SDS011;1894;51.038;13.692;2024-03-02T00:00:39;71.93;;;48.00;;
3757;SDS011;1894;51.038;13.692;2024-03-02T00:03:07;79.53;;;49.30;;
3757;SDS011;1894;51.038;13.692;2024-03-02T00:05:36;76.00;;;49.17;;
3757;SDS011;1894;51.038;13.692;2024-03-02T00:08:04;77.87;;;50.57;;
3757;SDS011;1894;51.038;13.692;2024-03-02T00:10:35;73.83;;;49.10;;
3757;SDS011;1894;51.038;13.692;2024-03-02T00:13:11;71.13;;;48.90;;
3757;SDS011;1894;51.038;13.692;2024-03-02T00:15:46;80.10;;;49.20;;
3757;SDS011;1894;51.038;13.692;2024-03-02T00:18:32;77.93;;;51.50;;
3757;SDS011;1894;51.038;13.692;2024-03-02T00:21:01;77.70;;;51.63;;
3757;SDS011;1894;51.038;13.692;2024-03-02T00:23:30;82.57;;;51.53;;
3757;SDS011;1894;51.038;13.692;2024-03-02T00:25:58;72.83;;;47.20;;
3757;SDS011;1894;51.038;13.692;2024-03-02T00:28:33;75.40;;;47.57;;
3757;SDS011;1894;51.038;13.692;2024-03-02T00:31:12;78.67;;;49.80;;
3757;SDS011;1894;51.038;13.692;2024-03-02T00:33:41;66.57;;;45.40;;
3757;SDS011;1894;51.038;13.692;2024-03-02T00:36:33;84.97;;;51.30;;
3757;SDS011;1894;51.038;13.692;2024-03-02T00:38:58;72.43;;;48.43;;
3757;SDS011;1894;51.038;13.692;2024-03-02T00:44:06;72.67;;;47.50;;
3757;SDS011;1894;51.038;13.692;2024-03-02T00:46:37;77.20;;;49.23;;
3757;SDS011;1894;51.038;13.692;2024-03-02T00:49:16;79.17;;;49.80;;
3757;SDS011;1894;51.038;13.692;2024-03-02T00:51:51;78.40;;;49.77;;
3757;SDS011;1894;51.038;13.692;2024-03-02T00:54:20;74.87;;;48.47;;
3757;SDS011;1894;51.038;13.692;2024-03-02T00:56:51;73.97;;;47.57;;
3757;SDS011;1894;51.038;13.692;2024-03-02T00:59:24;75.57;;;47.20;;
3757;SDS011;1894;51.038;13.692;2024-03-02T01:01:51;73.43;;;49.10;;
3757;SDS011;1894;51.038;13.692;2024-03-02T01:04:19;76.30;;;48.50;;
3757;SDS011;1894;51.038;13.692;2024-03-02T01:06:46;74.50;;;49.00;;
3757;SDS011;1894;51.038;13.692;2024-03-02T01:09:13;78.77;;;49.40;;
3757;SDS011;1894;51.038;13.692;2024-03-02T01:11:40;76.83;;;45.77;;
3757;SDS011;1894;51.038;13.692;2024-03-02T01:14:07;79.07;;;48.53;;
3757;SDS011;1894;51.038;13.692;2024-03-02T01:16:34;87.57;;;47.97;;
3757;SDS011;1894;51.038;13.692;2024-03-02T01:19:02;86.80;;;53.40;;
3757;SDS011;1894;51.038;13.692;2024-03-02T01:21:29;72.60;;;48.00;;
3757;SDS011;1894;51.038;13.692;2024-03-02T01:23:56;73.73;;;47.77;;
3757;SDS011;1894;51.038;13.692;2024-03-02T01:26:23;72.97;;;46.53;;
3757;SDS011;1894;51.038;13.692;2024-03-02T01:28:50;78.73;;;47.80;;
3757;SDS011;1894;51.038;13.692;2024-03-02T01:31:17;76.07;;;49.70;;
3757;SDS011;1894;51.038;13.692;2024-03-02T01:33:44;71.13;;;45.87;;
3757;SDS011;1894;51.038;13.692;2024-03-02T01:36:11;78.53;;;50.47;;
3757;SDS011;1894;51.038;13.692;2024-03-02T01:38:38;81.90;;;49.47;;
3757;SDS011;1894;51.038;13.692;2024-03-02T01:41:06;74.13;;;46.50;;
3757;SDS011;1894;51.038;13.692;2024-03-02T01:43:33;63.40;;;43.97;;
3757;SDS011;1894;51.038;13.692;2024-03-02T01:46:03;69.87;;;45.80;;
3757;SDS011;1894;51.038;13.692;2024-03-02T01:48:30;73.10;;;46.77;;
3757;SDS011;1894;51.038;13.692;2024-03-02T01:50:57;74.83;;;46.80;;
3757;SDS011;1894;51.038;13.692;2024-03-02T01:53:25;72.33;;;48.50;;
3757;SDS011;1894;51.038;13.692;2024-03-02T01:55:52;77.50;;;48.33;;
3757;SDS011;1894;51.038;13.692;2024-03-02T01:58:19;75.90;;;47.30;;
3757;SDS011;1894;51.038;13.692;2024-03-02T02:00:46;73.20;;;47.37;;
3757;SDS011;1894;51.038;13.692;2024-03-02T02:03:15;78.17;;;47.97;;
3757;SDS011;1894;51.038;13.692;2024-03-02T02:05:42;72.30;;;49.30;;
3757;SDS011;1894;51.038;13.692;2024-03-02T02:08:09;77.60;;;47.97;;
3757;SDS011;1894;51.038;13.692;2024-03-02T02:10:37;71.80;;;47.37;;
3757;SDS011;1894;51.038;13.692;2024-03-02T02:13:04;69.73;;;46.13;;
3757;SDS011;1894;51.038;13.692;2024-03-02T02:15:31;75.20;;;46.87;;
3757;SDS011;1894;51.038;13.692;2024-03-02T02:18:01;73.97;;;47.70;;
3757;SDS011;1894;51.038;13.692;2024-03-02T02:20:28;64.20;;;44.57;;
3757;SDS011;1894;51.038;13.692;2024-03-02T02:22:59;64.07;;;44.23;;
3757;SDS011;1894;51.038;13.692;2024-03-02T02:25:27;73.60;;;48.67;;
3757;SDS011;1894;51.038;13.692;2024-03-02T02:27:56;67.37;;;46.10;;
3757;SDS011;1894;51.038;13.692;2024-03-02T02:32:55;69.57;;;44.67;;
3757;SDS011;1894;51.038;13.692;2024-03-02T02:35:23;75.63;;;46.97;;
3757;SDS011;1894;51.038;13.692;2024-03-02T02:37:51;67.87;;;42.27;;
3757;SDS011;1894;51.038;13.692;2024-03-02T02:40:21;72.33;;;44.47;;
3757;SDS011;1894;51.038;13.692;2024-03-02T02:42:48;66.00;;;45.30;;
3757;SDS011;1894;51.038;13.692;2024-03-02T02:45:16;74.07;;;43.70;;
3757;SDS011;1894;51.038;13.692;2024-03-02T02:47:44;75.93;;;46.57;;
3757;SDS011;1894;51.038;13.692;2024-03-02T02:50:11;68.70;;;43.53;;
3757;SDS011;1894;51.038;13.692;2024-03-02T02:52:39;73.27;;;47.20;;
3757;SDS011;1894;51.038;13.692;2024-03-02T02:55:09;72.47;;;44.57;;
3757;SDS011;1894;51.038;13.692;2024-03-02T02:57:38;78.90;;;47.97;;
3757;SDS011;1894;51.038;13.692;2024-03-02T03:00:15;79.57;;;47.17;;
3757;SDS011;1894;51.038;13.692;2024-03-02T03:02:46;82.90;;;46.37;;
3757;SDS011;1894;51.038;13.692;2024-03-02T03:05:16;65.03;;;44.93;;
3757;SDS011;1894;51.038;13.692;2024-03-02T03:07:44;68.40;;;46.57;;
3757;SDS011;1894;51.038;13.692;2024-03-02T03:10:12;71.30;;;46.27;;
3757;SDS011;1894;51.038;13.692;2024-03-02T03:12:41;73.23;;;43.47;;
3757;SDS011;1894;51.038;13.692;2024-03-02T03:15:10;76.03;;;47.03;;
3757;SDS011;1894;51.038;13.692;2024-03-02T03:17:38;67.07;;;45.70;;
3757;SDS011;1894;51.038;13.692;2024-03-02T03:20:06;61.97;;;43.70;;
3757;SDS011;1894;51.038;13.692;2024-03-02T03:22:36;70.40;;;47.00;;
3757;SDS011;1894;51.038;13.692;2024-03-02T03:25:04;72.83;;;45.90;;
3757;SDS011;1894;51.038;13.692;2024-03-02T03:27:35;64.90;;;44.07;;
3757;SDS011;1894;51.038;13.692;2024-03-02T03:30:02;69.23;;;42.23;;
3757;SDS011;1894;51.038;13.692;2024-03-02T03:32:30;71.90;;;45.27;;
3757;SDS011;1894;51.038;13.692;2024-03-02T03:34:57;72.63;;;46.07;;
3757;SDS011;1894;51.038;13.692;2024-03-02T03:37:24;72.93;;;47.50;;
3757;SDS011;1894;51.038;13.692;2024-03-02T03:39:53;75.17;;;46.77;;
3757;SDS011;1894;51.038;13.692;2024-03-02T03:42:20;71.20;;;46.20;;
3757;SDS011;1894;51.038;13.692;2024-03-02T03:44:47;72.60;;;46.70;;
3757;SDS011;1894;51.038;13.692;2024-03-02T03:47:14;74.80;;;47.30;;
3757;SDS011;1894;51.038;13.692;2024-03-02T03:49:41;76.33;;;48.43;;
3757;SDS011;1894;51.038;13.692;2024-03-02T03:52:08;70.63;;;45.40;;
3757;SDS011;1894;51.038;13.692;2024-03-02T03:54:35;67.33;;;47.17;;
3757;SDS011;1894;51.038;13.692;2024-03-02T03:57:04;69.63;;;45.60;;
3757;SDS011;1894;51.038;13.692;2024-03-02T03:59:32;66.97;;;43.43;;
3757;SDS011;1894;51.038;13.692;2024-03-02T04:01:59;82.93;;;48.17;;
3757;SDS011;1894;51.038;13.692;2024-03-02T04:04:26;75.43;;;45.70;;
3757;SDS011;1894;51.038;13.692;2024-03-02T04:06:53;80.10;;;45.97;;
3757;SDS011;1894;51.038;13.692;2024-03-02T04:09:21;75.80;;;47.50;;
3757;SDS011;1894;51.038;13.692;2024-03-02T04:11:48;71.20;;;46.40;;
3757;SDS011;1894;51.038;13.692;2024-03-02T04:14:15;65.53;;;44.17;;
3757;SDS011;1894;51.038;13.692;2024-03-02T04:16:42;66.80;;;45.90;;
3757;SDS011;1894;51.038;13.692;2024-03-02T04:19:09;64.47;;;42.60;;
3757;SDS011;1894;51.038;13.692;2024-03-02T04:21:36;68.07;;;42.93;;
3757;SDS011;1894;51.038;13.692;2024-03-02T04:24:03;75.60;;;45.27;;
3757;SDS011;1894;51.038;13.692;2024-03-02T04:26:31;74.37;;;45.50;;
3757;SDS011;1894;51.038;13.692;2024-03-02T04:28:58;70.40;;;43.40;;
3757;SDS011;1894;51.038;13.692;2024-03-02T04:31:25;65.80;;;42.40;;
3757;SDS011;1894;51.038;13.692;2024-03-02T04:33:52;66.93;;;43.30;;
3757;SDS011;1894;51.038;13.692;2024-03-02T04:36:20;64.00;;;43.10;;
3757;SDS011;1894;51.038;13.692;2024-03-02T04:38:48;69.47;;;43.93;;
3757;SDS011;1894;51.038;13.692;2024-03-02T04:41:15;89.07;;;48.90;;
3757;SDS011;1894;51.038;13.692;2024-03-02T04:43:42;85.00;;;50.30;;
3757;SDS011;1894;51.038;13.692;2024-03-02T04:46:09;91.47;;;52.23;;
3757;SDS011;1894;51.038;13.692;2024-03-02T04:48:37;92.20;;;52.80;;
3757;SDS011;1894;51.038;13.692;2024-03-02T04:51:04;89.90;;;50.53;;
3757;SDS011;1894;51.038;13.692;2024-03-02T04:53:32;85.67;;;49.37;;
3757;SDS011;1894;51.038;13.692;2024-03-02T04:55:59;80.63;;;48.40;;
3757;SDS011;1894;51.038;13.692;2024-03-02T04:58:44;80.70;;;46.63;;
3757;SDS011;1894;51.038;13.692;2024-03-02T05:01:11;77.50;;;47.00;;
3757;SDS011;1894;51.038;13.692;2024-03-02T05:03:38;78.10;;;47.40;;
3757;SDS011;1894;51.038;13.692;2024-03-02T05:06:06;75.13;;;45.87;;
3757;SDS011;1894;51.038;13.692;2024-03-02T05:08:39;77.33;;;43.40;;
3757;SDS011;1894;51.038;13.692;2024-03-02T05:11:06;71.20;;;45.23;;
3757;SDS011;1894;51.038;13.692;2024-03-02T05:13:51;77.10;;;44.10;;
3757;SDS011;1894;51.038;13.692;2024-03-02T05:16:18;75.03;;;45.20;;
3757;SDS011;1894;51.038;13.692;2024-03-02T05:18:46;71.93;;;45.80;;
3757;SDS011;1894;51.038;13.692;2024-03-02T05:21:13;65.27;;;41.70;;
3757;SDS011;1894;51.038;13.692;2024-03-02T05:23:40;73.37;;;43.87;;
3757;SDS011;1894;51.038;13.692;2024-03-02T05:26:07;73.67;;;44.63;;
3757;SDS011;1894;51.038;13.692;2024-03-02T05:28:36;76.23;;;44.37;;
3757;SDS011;1894;51.038;13.692;2024-03-02T05:31:03;75.93;;;43.07;;
3757;SDS011;1894;51.038;13.692;2024-03-02T05:33:31;65.00;;;41.57;;
3757;SDS011;1894;51.038;13.692;2024-03-02T05:35:59;81.97;;;49.60;;
3757;SDS011;1894;51.038;13.692;2024-03-02T05:38:28;74.37;;;41.97;;
3757;SDS011;1894;51.038;13.692;2024-03-02T05:40:55;80.93;;;49.13;;
3757;SDS011;1894;51.038;13.692;2024-03-02T05:43:22;72.93;;;47.70;;
3757;SDS011;1894;51.038;13.692;2024-03-02T05:45:49;76.63;;;45.03;;
3757;SDS011;1894;51.038;13.692;2024-03-02T05:48:16;70.00;;;42.43;;
3757;SDS011;1894;51.038;13.692;2024-03-02T05:50:43;83.90;;;51.77;;
3757;SDS011;1894;51.038;13.692;2024-03-02T05:53:10;72.20;;;43.87;;
3757;SDS011;1894;51.038;13.692;2024-03-02T05:55:37;69.00;;;41.10;;
3757;SDS011;1894;51.038;13.692;2024-03-02T05:58:04;69.97;;;41.30;;
3757;SDS011;1894;51.038;13.692;2024-03-02T06:00:50;71.70;;;43.47;;
3757;SDS011;1894;51.038;13.692;2024-03-02T06:03:17;71.77;;;43.70;;
3757;SDS011;1894;51.038;13.692;2024-03-02T06:05:44;71.37;;;42.47;;
3757;SDS011;1894;51.038;13.692;2024-03-02T06:08:11;69.70;;;42.30;;
3757;SDS011;1894;51.038;13.692;2024-03-02T06:10:38;68.73;;;42.57;;
3757;SDS011;1894;51.038;13.692;2024-03-02T06:13:06;71.83;;;43.63;;
3757;SDS011;1894;51.038;13.692;2024-03-02T06:15:33;74.77;;;41.40;;
3757;SDS011;1894;51.038;13.692;2024-03-02T06:18:02;62.23;;;39.90;;
3757;SDS011;1894;51.038;13.692;2024-03-02T06:20:30;65.73;;;42.10;;
3757;SDS011;1894;51.038;13.692;2024-03-02T06:23:01;70.37;;;41.13;;
3757;SDS011;1894;51.038;13.692;2024-03-02T06:25:29;64.80;;;41.47;;
3757;SDS011;1894;51.038;13.692;2024-03-02T06:27:57;66.80;;;40.77;;
3757;SDS011;1894;51.038;13.692;2024-03-02T06:30:24;67.97;;;39.30;;
3757;SDS011;1894;51.038;13.692;2024-03-02T06:32:51;66.57;;;42.63;;
3757;SDS011;1894;51.038;13.692;2024-03-02T06:35:18;57.67;;;36.97;;
3757;SDS011;1894;51.038;13.692;2024-03-02T06:37:46;60.63;;;40.50;;
3757;SDS011;1894;51.038;13.692;2024-03-02T06:40:13;67.77;;;40.47;;
3757;SDS011;1894;51.038;13.692;2024-03-02T06:42:40;67.67;;;41.27;;
3757;SDS011;1894;51.038;13.692;2024-03-02T06:45:07;62.97;;;39.50;;
3757;SDS011;1894;51.038;13.692;2024-03-02T06:47:34;62.87;;;38.37;;
3757;SDS011;1894;51.038;13.692;2024-03-02T06:50:01;63.70;;;38.13;;
3757;SDS011;1894;51.038;13.692;2024-03-02T06:52:29;62.50;;;39.53;;
3757;SDS011;1894;51.038;13.692;2024-03-02T06:54:56;66.47;;;39.30;;
3757;SDS011;1894;51.038;13.692;2024-03-02T06:57:23;72.90;;;38.73;;
3757;SDS011;1894;51.038;13.692;2024-03-02T06:59:51;71.90;;;39.27;;
3757;SDS011;1894;51.038;13.692;2024-03-02T07:02:21;71.03;;;42.00;;
3757;SDS011;1894;51.038;13.692;2024-03-02T07:04:52;63.43;;;42.03;;
3757;SDS011;1894;51.038;13.692;2024-03-02T07:07:22;68.80;;;40.60;;
3757;SDS011;1894;51.038;13.692;2024-03-02T07:09:49;62.80;;;40.47;;
3757;SDS011;1894;51.038;13.692;2024-03-02T07:12:17;61.43;;;37.97;;
3757;SDS011;1894;51.038;13.692;2024-03-02T07:14:44;55.93;;;38.40;;
3757;SDS011;1894;51.038;13.692;2024-03-02T07:17:29;58.60;;;36.97;;
3757;SDS011;1894;51.038;13.692;2024-03-02T07:19:57;60.20;;;37.87;;
3757;SDS011;1894;51.038;13.692;2024-03-02T07:22:24;67.17;;;42.70;;
3757;SDS011;1894;51.038;13.692;2024-03-02T07:24:51;67.10;;;43.27;;
3757;SDS011;1894;51.038;13.692;2024-03-02T07:27:18;68.83;;;41.80;;
3757;SDS011;1894;51.038;13.692;2024-03-02T07:29:46;74.90;;;42.27;;
3757;SDS011;1894;51.038;13.692;2024-03-02T07:32:13;65.90;;;40.67;;
3757;SDS011;1894;51.038;13.692;2024-03-02T07:34:40;72.10;;;41.90;;
3757;SDS011;1894;51.038;13.692;2024-03-02T07:37:07;73.17;;;41.50;;
3757;SDS011;1894;51.038;13.692;2024-03-02T07:39:34;69.97;;;40.93;;
3757;SDS011;1894;51.038;13.692;2024-03-02T07:42:01;76.37;;;42.20;;
3757;SDS011;1894;51.038;13.692;2024-03-02T07:44:28;70.10;;;42.60;;
3757;SDS011;1894;51.038;13.692;2024-03-02T07:46:56;73.47;;;42.53;;
3757;SDS011;1894;51.038;13.692;2024-03-02T07:49:23;79.23;;;42.63;;
3757;SDS011;1894;51.038;13.692;2024-03-02T07:51:50;66.17;;;40.73;;
3757;SDS011;1894;51.038;13.692;2024-03-02T07:54:20;69.20;;;43.30;;
3757;SDS011;1894;51.038;13.692;2024-03-02T07:56:47;62.70;;;39.80;;
3757;SDS011;1894;51.038;13.692;2024-03-02T07:59:17;74.70;;;43.67;;
3757;SDS011;1894;51.038;13.692;2024-03-02T08:01:44;73.97;;;39.90;;
3757;SDS011;1894;51.038;13.692;2024-03-02T08:04:11;63.43;;;40.33;;
3757;SDS011;1894;51.038;13.692;2024-03-02T08:06:38;69.93;;;39.30;;
3757;SDS011;1894;51.038;13.692;2024-03-02T08:09:05;61.67;;;37.03;;
3757;SDS011;1894;51.038;13.692;2024-03-02T08:11:36;70.77;;;40.37;;
3757;SDS011;1894;51.038;13.692;2024-03-02T08:14:06;70.43;;;42.47;;
3757;SDS011;1894;51.038;13.692;2024-03-02T08:16:33;75.43;;;42.47;;
3757;SDS011;1894;51.038;13.692;2024-03-02T08:19:00;64.27;;;38.73;;
3757;SDS011;1894;51.038;13.692;2024-03-02T08:21:28;67.63;;;42.43;;
3757;SDS011;1894;51.038;13.692;2024-03-02T08:23:57;68.03;;;40.83;;
3757;SDS011;1894;51.038;13.692;2024-03-02T08:26:24;62.30;;;40.63;;
3757;SDS011;1894;51.038;13.692;2024-03-02T08:28:52;55.47;;;36.43;;
3757;SDS011;1894;51.038;13.692;2024-03-02T08:31:19;60.27;;;37.90;;
3757;SDS011;1894;51.038;13.692;2024-03-02T08:33:46;63.70;;;39.80;;
3757;SDS011;1894;51.038;13.692;2024-03-02T08:36:13;56.80;;;37.73;;
3757;SDS011;1894;51.038;13.692;2024-03-02T08:38:41;56.63;;;37.57;;
3757;SDS011;1894;51.038;13.692;2024-03-02T08:41:10;59.47;;;35.97;;
3757;SDS011;1894;51.038;13.692;2024-03-02T08:43:40;63.33;;;36.47;;
3757;SDS011;1894;51.038;13.692;2024-03-02T08:46:08;64.53;;;34.60;;
3757;SDS011;1894;51.038;13.692;2024-03-02T08:48:36;75.03;;;38.47;;
3757;SDS011;1894;51.038;13.692;2024-03-02T08:51:03;74.40;;;41.13;;
3757;SDS011;1894;51.038;13.692;2024-03-02T08:53:33;65.77;;;37.60;;
3757;SDS011;1894;51.038;13.692;2024-03-02T08:56:01;70.80;;;39.07;;
3757;SDS011;1894;51.038;13.692;2024-03-02T08:58:28;70.73;;;39.70;;
3757;SDS011;1894;51.038;13.692;2024-03-02T09:00:55;59.53;;;34.80;;
3757;SDS011;1894;51.038;13.692;2024-03-02T09:03:23;73.43;;;39.67;;
3757;SDS011;1894;51.038;13.692;2024-03-02T09:05:50;71.70;;;38.37;;
3757;SDS011;1894;51.038;13.692;2024-03-02T09:08:17;59.57;;;36.10;;
3757;SDS011;1894;51.038;13.692;2024-03-02T09:10:44;65.57;;;35.57;;
3757;SDS011;1894;51.038;13.692;2024-03-02T09:13:11;56.57;;;32.40;;
3757;SDS011;1894;51.038;13.692;2024-03-02T09:15:39;54.47;;;34.00;;
3757;SDS011;1894;51.038;13.692;2024-03-02T09:18:07;58.50;;;32.33;;
3757;SDS011;1894;51.038;13.692;2024-03-02T09:20:34;59.83;;;31.23;;
3757;SDS011;1894;51.038;13.692;2024-03-02T09:23:01;56.37;;;33.83;;
3757;SDS011;1894;51.038;13.692;2024-03-02T09:25:28;56.37;;;33.10;;
3757;SDS011;1894;51.038;13.692;2024-03-02T09:27:55;52.87;;;31.17;;
3757;SDS011;1894;51.038;13.692;2024-03-02T09:30:23;54.43;;;31.73;;
3757;SDS011;1894;51.038;13.692;2024-03-02T09:32:50;48.50;;;29.07;;
3757;SDS011;1894;51.038;13.692;2024-03-02T09:35:17;48.60;;;28.77;;
3757;SDS011;1894;51.038;13.692;2024-03-02T09:37:44;46.43;;;30.33;;
3757;SDS011;1894;51.038;13.692;2024-03-02T09:40:13;46.27;;;28.90;;
3757;SDS011;1894;51.038;13.692;2024-03-02T09:42:40;48.63;;;27.80;;
3757;SDS011;1894;51.038;13.692;2024-03-02T09:45:08;41.93;;;26.03;;
3757;SDS011;1894;51.038;13.692;2024-03-02T09:47:36;38.60;;;23.50;;
3757;SDS011;1894;51.038;13.692;2024-03-02T09:50:04;38.03;;;23.67;;
3757;SDS011;1894;51.038;13.692;2024-03-02T09:52:32;39.53;;;22.57;;
3757;SDS011;1894;51.038;13.692;2024-03-02T09:54:59;40.30;;;24.57;;
3757;SDS011;1894;51.038;13.692;2024-03-02T09:57:27;39.17;;;24.07;;
3757;SDS011;1894;51.038;13.692;2024-03-02T09:59:54;35.13;;;21.83;;
3757;SDS011;1894;51.038;13.692;2024-03-02T10:02:21;29.63;;;19.13;;
3757;SDS011;1894;51.038;13.692;2024-03-02T10:04:49;32.03;;;20.80;;
3757;SDS011;1894;51.038;13.692;2024-03-02T10:07:17;34.77;;;22.60;;
3757;SDS011;1894;51.038;13.692;2024-03-02T10:09:46;31.10;;;20.67;;
3757;SDS011;1894;51.038;13.692;2024-03-02T10:12:16;34.47;;;19.57;;
3757;SDS011;1894;51.038;13.692;2024-03-02T10:14:44;37.37;;;21.13;;
3757;SDS011;1894;51.038;13.692;2024-03-02T10:17:12;34.50;;;21.77;;
3757;SDS011;1894;51.038;13.692;2024-03-02T10:19:41;31.23;;;19.50;;
3757;SDS011;1894;51.038;13.692;2024-03-02T10:22:09;31.27;;;20.53;;
3757;SDS011;1894;51.038;13.692;2024-03-02T10:24:43;32.13;;;20.43;;
3757;SDS011;1894;51.038;13.692;2024-03-02T10:27:26;30.47;;;20.33;;
3757;SDS011;1894;51.038;13.692;2024-03-02T10:29:54;35.07;;;21.20;;
3757;SDS011;1894;51.038;13.692;2024-03-02T10:32:22;34.00;;;22.03;;
3757;SDS011;1894;51.038;13.692;2024-03-02T10:34:49;29.70;;;20.00;;
3757;SDS011;1894;51.038;13.692;2024-03-02T10:37:16;34.97;;;21.07;;
3757;SDS011;1894;51.038;13.692;2024-03-02T10:39:45;35.80;;;20.60;;
3757;SDS011;1894;51.038;13.692;2024-03-02T10:42:14;35.00;;;20.10;;
3757;SDS011;1894;51.038;13.692;2024-03-02T10:44:42;26.90;;;18.37;;
3757;SDS011;1894;51.038;13.692;2024-03-02T10:47:09;29.50;;;17.23;;
3757;SDS011;1894;51.038;13.692;2024-03-02T10:49:41;32.57;;;17.13;;
3757;SDS011;1894;51.038;13.692;2024-03-02T10:52:10;24.23;;;16.80;;
3757;SDS011;1894;51.038;13.692;2024-03-02T10:54:37;31.40;;;17.97;;
3757;SDS011;1894;51.038;13.692;2024-03-02T10:57:07;20.73;;;15.33;;
3757;SDS011;1894;51.038;13.692;2024-03-02T10:59:37;23.90;;;15.93;;
3757;SDS011;1894;51.038;13.692;2024-03-02T11:02:13;25.93;;;16.73;;
3757;SDS011;1894;51.038;13.692;2024-03-02T11:04:41;19.40;;;13.40;;
3757;SDS011;1894;51.038;13.692;2024-03-02T11:07:10;19.60;;;13.60;;
3757;SDS011;1894;51.038;13.692;2024-03-02T11:09:43;21.83;;;15.30;;
3757;SDS011;1894;51.038;13.692;2024-03-02T11:15:19;14.40;;;10.13;;
3757;SDS011;1894;51.038;13.692;2024-03-02T11:17:52;12.47;;;10.73;;
3757;SDS011;1894;51.038;13.692;2024-03-02T11:20:20;12.80;;;10.97;;
3757;SDS011;1894;51.038;13.692;2024-03-02T11:22:48;8.60;;;7.70;;
3757;SDS011;1894;51.038;13.692;2024-03-02T11:25:24;8.07;;;5.93;;
3757;SDS011;1894;51.038;13.692;2024-03-02T11:33:01;12.03;;;8.90;;
3757;SDS011;1894;51.038;13.692;2024-03-02T11:35:42;10.23;;;8.87;;
3757;SDS011;1894;51.038;13.692;2024-03-02T11:38:18;9.20;;;8.20;;
3757;SDS011;1894;51.038;13.692;2024-03-02T11:40:45;10.90;;;8.90;;
3757;SDS011;1894;51.038;13.692;2024-03-02T11:43:13;10.10;;;8.93;;
3757;SDS011;1894;51.038;13.692;2024-03-02T11:45:41;10.47;;;8.77;;
3757;SDS011;1894;51.038;13.692;2024-03-02T11:48:13;16.43;;;13.33;;
3757;SDS011;1894;51.038;13.692;2024-03-02T11:53:13;11.67;;;8.83;;
3757;SDS011;1894;51.038;13.692;2024-03-02T11:55:40;14.60;;;11.10;;
3757;SDS011;1894;51.038;13.692;2024-03-02T11:58:10;11.60;;;8.63;;
3757;SDS011;1894;51.038;13.692;2024-03-02T12:00:37;12.87;;;9.50;;
3757;SDS011;1894;51.038;13.692;2024-03-02T12:03:05;9.43;;;8.20;;
3757;SDS011;1894;51.038;13.692;2024-03-02T12:05:34;10.87;;;8.93;;
3757;SDS011;1894;51.038;13.692;2024-03-02T12:08:03;10.80;;;8.50;;
3757;SDS011;1894;51.038;13.692;2024-03-02T12:10:33;11.10;;;8.70;;
3757;SDS011;1894;51.038;13.692;2024-03-02T12:13:03;9.80;;;8.80;;
3757;SDS011;1894;51.038;13.692;2024-03-02T12:15:38;12.40;;;10.30;;
3757;SDS011;1894;51.038;13.692;2024-03-02T12:18:07;12.00;;;9.23;;
3757;SDS011;1894;51.038;13.692;2024-03-02T12:20:34;15.57;;;11.13;;
3757;SDS011;1894;51.038;13.692;2024-03-02T12:23:02;12.63;;;9.67;;
3757;SDS011;1894;51.038;13.692;2024-03-02T12:25:31;16.37;;;11.17;;
3757;SDS011;1894;51.038;13.692;2024-03-02T12:28:02;15.03;;;11.20;;
3757;SDS011;1894;51.038;13.692;2024-03-02T12:30:30;16.70;;;10.70;;
3757;SDS011;1894;51.038;13.692;2024-03-02T12:33:02;11.50;;;9.90;;
3757;SDS011;1894;51.038;13.692;2024-03-02T12:35:29;12.10;;;9.53;;
3757;SDS011;1894;51.038;13.692;2024-03-02T12:37:56;16.00;;;11.77;;
3757;SDS011;1894;51.038;13.692;2024-03-02T12:40:24;17.00;;;10.50;;
3757;SDS011;1894;51.038;13.692;2024-03-02T12:42:52;15.37;;;10.17;;
3757;SDS011;1894;51.038;13.692;2024-03-02T12:45:19;18.40;;;11.13;;
3757;SDS011;1894;51.038;13.692;2024-03-02T12:47:51;16.03;;;12.20;;
3757;SDS011;1894;51.038;13.692;2024-03-02T12:50:20;17.93;;;12.90;;
3757;SDS011;1894;51.038;13.692;2024-03-02T12:52:51;22.43;;;14.63;;
3757;SDS011;1894;51.038;13.692;2024-03-02T12:55:20;30.63;;;15.43;;
3757;SDS011;1894;51.038;13.692;2024-03-02T12:57:49;17.97;;;12.77;;
3757;SDS011;1894;51.038;13.692;2024-03-02T13:00:22;19.73;;;13.23;;
3757;SDS011;1894;51.038;13.692;2024-03-02T13:02:51;22.00;;;12.53;;
3757;SDS011;1894;51.038;13.692;2024-03-02T13:05:18;30.57;;;14.57;;
3757;SDS011;1894;51.038;13.692;2024-03-02T13:07:47;17.63;;;13.20;;
3757;SDS011;1894;51.038;13.692;2024-03-02T13:10:15;21.33;;;15.27;;
3757;SDS011;1894;51.038;13.692;2024-03-02T13:12:44;22.20;;;13.67;;
3757;SDS011;1894;51.038;13.692;2024-03-02T13:15:12;23.43;;;15.40;;
3757;SDS011;1894;51.038;13.692;2024-03-02T13:17:44;23.93;;;15.17;;
3757;SDS011;1894;51.038;13.692;2024-03-02T13:20:13;21.50;;;16.30;;
3757;SDS011;1894;51.038;13.692;2024-03-02T13:22:41;20.17;;;15.90;;
3757;SDS011;1894;51.038;13.692;2024-03-02T13:25:09;26.93;;;17.47;;
3757;SDS011;1894;51.038;13.692;2024-03-02T13:27:38;25.00;;;17.00;;
3757;SDS011;1894;51.038;13.692;2024-03-02T13:30:05;24.87;;;17.27;;
3757;SDS011;1894;51.038;13.692;2024-03-02T13:32:35;30.70;;;18.87;;
3757;SDS011;1894;51.038;13.692;2024-03-02T13:35:03;27.20;;;19.10;;
3757;SDS011;1894;51.038;13.692;2024-03-02T13:37:30;28.27;;;18.40;;
3757;SDS011;1894;51.038;13.692;2024-03-02T13:39:57;26.80;;;17.70;;
3757;SDS011;1894;51.038;13.692;2024-03-02T13:42:25;23.80;;;17.47;;
3757;SDS011;1894;51.038;13.692;2024-03-02T13:44:53;23.37;;;15.90;;
3757;SDS011;1894;51.038;13.692;2024-03-02T13:47:21;24.70;;;15.63;;
3757;SDS011;1894;51.038;13.692;2024-03-02T13:49:51;25.87;;;15.37;;
3757;SDS011;1894;51.038;13.692;2024-03-02T13:52:18;23.57;;;16.00;;
3757;SDS011;1894;51.038;13.692;2024-03-02T13:54:47;23.83;;;16.20;;
3757;SDS011;1894;51.038;13.692;2024-03-02T13:57:14;23.57;;;15.23;;
3757;SDS011;1894;51.038;13.692;2024-03-02T13:59:44;24.20;;;16.00;;
3757;SDS011;1894;51.038;13.692;2024-03-02T14:02:12;26.50;;;15.90;;
3757;SDS011;1894;51.038;13.692;2024-03-02T14:04:39;23.33;;;16.17;;
3757;SDS011;1894;51.038;13.692;2024-03-02T14:07:07;19.87;;;14.93;;
3757;SDS011;1894;51.038;13.692;2024-03-02T14:09:35;24.03;;;16.33;;
3757;SDS011;1894;51.038;13.692;2024-03-02T14:12:03;22.80;;;15.33;;
3757;SDS011;1894;51.038;13.692;2024-03-02T14:14:31;28.33;;;17.20;;
3757;SDS011;1894;51.038;13.692;2024-03-02T14:16:59;27.73;;;17.00;;
3757;SDS011;1894;51.038;13.692;2024-03-02T14:19:30;25.53;;;17.23;;
3757;SDS011;1894;51.038;13.692;2024-03-02T14:21:58;32.47;;;21.33;;
3757;SDS011;1894;51.038;13.692;2024-03-02T14:24:26;36.77;;;20.60;;
3757;SDS011;1894;51.038;13.692;2024-03-02T14:26:55;36.57;;;21.37;;
3757;SDS011;1894;51.038;13.692;2024-03-02T14:29:45;32.30;;;20.53;;
3757;SDS011;1894;51.038;13.692;2024-03-02T14:32:12;37.00;;;19.87;;
3757;SDS011;1894;51.038;13.692;2024-03-02T14:34:39;35.00;;;20.63;;
3757;SDS011;1894;51.038;13.692;2024-03-02T14:37:06;32.07;;;20.27;;
3757;SDS011;1894;51.038;13.692;2024-03-02T14:39:34;33.50;;;21.27;;
3757;SDS011;1894;51.038;13.692;2024-03-02T14:42:03;32.03;;;19.90;;
3757;SDS011;1894;51.038;13.692;2024-03-02T14:44:30;35.93;;;20.03;;
3757;SDS011;1894;51.038;13.692;2024-03-02T14:46:57;29.00;;;19.27;;
3757;SDS011;1894;51.038;13.692;2024-03-02T14:49:28;42.50;;;22.43;;
3757;SDS011;1894;51.038;13.692;2024-03-02T14:51:55;28.80;;;20.43;;
3757;SDS011;1894;51.038;13.692;2024-03-02T14:54:23;32.10;;;19.53;;
3757;SDS011;1894;51.038;13.692;2024-03-02T14:56:50;32.07;;;19.80;;
3757;SDS011;1894;51.038;13.692;2024-03-02T14:59:18;32.87;;;22.93;;